TVF9828 LFQQ-GMMX
Flight info
| Callsign | TVF9828 |
|---|---|
| Flight time | 3h 29m |
| Altitude | 37000 |
| Route | ABB R50 OKRUZ H20 LGL UT176 TERPO UN872 ERIGA DCT FUJTI DCT PEPET DCT BAKUP DCT BATAX DCT PINOX DCT TOFEF DCT ALAGU DCT AMSEL UR722 SAK UW900 TIXAL UG850 OBOGA |
| Aircraft | B738/M-SDE2E3FGHIRWXY/LB1 |
Departure
| Time | 2026-05-06 08:28 |
|---|---|
| Airport | Lille Airport (LFQQ) |
Arrival
| Time | 2026-05-06 11:57 |
|---|---|
| Airport | Marrakesh Menara Airport (GMMX) |
| Time | Latitude | Longitude | Altitude | Speed | Heading |
|---|---|---|---|---|---|
| 2026-05-06 08:06 | 50.57065 | 3.10472 | 150 ft | 0 kts | 349° |
| 2026-05-06 08:23 | 50.57064 | 3.10472 | 150 ft | 5 kts | 348° |
| 2026-05-06 08:23 | 50.57024 | 3.10483 | 151 ft | 6 kts | 15° |
| 2026-05-06 08:23 | 50.57001 | 3.10451 | 152 ft | 0 kts | 83° |
| 2026-05-06 08:23 | 50.57002 | 3.10451 | 150 ft | 0 kts | 83° |
| 2026-05-06 08:24 | 50.57004 | 3.10477 | 150 ft | 9 kts | 80° |
| 2026-05-06 08:25 | 50.57027 | 3.10625 | 150 ft | 17 kts | 86° |
| 2026-05-06 08:25 | 50.56954 | 3.10716 | 150 ft | 14 kts | 167° |
| 2026-05-06 08:25 | 50.56863 | 3.10761 | 150 ft | 14 kts | 141° |
| 2026-05-06 08:25 | 50.56856 | 3.10900 | 150 ft | 13 kts | 77° |
| 2026-05-06 08:26 | 50.56875 | 3.11037 | 150 ft | 13 kts | 77° |
| 2026-05-06 08:26 | 50.56901 | 3.11213 | 150 ft | 18 kts | 78° |
| 2026-05-06 08:26 | 50.56927 | 3.11403 | 151 ft | 17 kts | 77° |
| 2026-05-06 08:26 | 50.56922 | 3.11580 | 151 ft | 17 kts | 135° |
| 2026-05-06 08:27 | 50.56812 | 3.11626 | 152 ft | 16 kts | 174° |
| 2026-05-06 08:27 | 50.56736 | 3.11451 | 153 ft | 46 kts | 257° |
| 2026-05-06 08:27 | 50.56606 | 3.10523 | 148 ft | 125 kts | 256° |
| 2026-05-06 08:27 | 50.56366 | 3.08880 | 334 ft | 175 kts | 259° |
| 2026-05-06 08:28 | 50.56108 | 3.06910 | 1130 ft | 185 kts | 274° |
| 2026-05-06 08:28 | 50.56185 | 3.04996 | 2368 ft | 173 kts | 280° |
| 2026-05-06 08:28 | 50.56249 | 3.03080 | 3138 ft | 180 kts | 277° |
| 2026-05-06 08:28 | 50.56293 | 3.01000 | 3583 ft | 203 kts | 277° |
| 2026-05-06 08:29 | 50.56176 | 2.98635 | 3776 ft | 234 kts | 254° |
| 2026-05-06 08:29 | 50.55135 | 2.96568 | 4151 ft | 253 kts | 213° |
| 2026-05-06 08:29 | 50.53520 | 2.95358 | 4690 ft | 260 kts | 204° |
| 2026-05-06 08:29 | 50.51855 | 2.94172 | 5267 ft | 268 kts | 206° |
| 2026-05-06 08:30 | 50.50133 | 2.92887 | 5757 ft | 279 kts | 207° |
| 2026-05-06 08:30 | 50.48262 | 2.91965 | 6441 ft | 287 kts | 182° |
| 2026-05-06 08:30 | 50.46291 | 2.92131 | 7375 ft | 284 kts | 174° |
| 2026-05-06 08:30 | 50.44319 | 2.92443 | 8205 ft | 286 kts | 174° |
| 2026-05-06 08:31 | 50.42339 | 2.92768 | 9073 ft | 287 kts | 174° |
| 2026-05-06 08:31 | 50.40351 | 2.93087 | 9878 ft | 290 kts | 174° |
| 2026-05-06 08:31 | 50.38304 | 2.93406 | 10352 ft | 304 kts | 174° |
| 2026-05-06 08:31 | 50.36110 | 2.93742 | 10539 ft | 328 kts | 174° |
| 2026-05-06 08:32 | 50.33766 | 2.94094 | 10781 ft | 349 kts | 174° |
| 2026-05-06 08:32 | 50.31318 | 2.94456 | 11334 ft | 358 kts | 173° |
| 2026-05-06 08:32 | 50.28807 | 2.94827 | 11879 ft | 367 kts | 173° |
| 2026-05-06 08:32 | 50.26347 | 2.95532 | 12712 ft | 363 kts | 158° |
| 2026-05-06 08:33 | 50.24138 | 2.97418 | 13445 ft | 363 kts | 142° |
| 2026-05-06 08:33 | 50.22078 | 2.99742 | 14082 ft | 368 kts | 141° |
| 2026-05-06 08:33 | 50.20010 | 3.02133 | 14692 ft | 372 kts | 141° |
| 2026-05-06 08:33 | 50.17907 | 3.04529 | 15287 ft | 377 kts | 142° |
| 2026-05-06 08:34 | 50.15759 | 3.06931 | 15873 ft | 382 kts | 143° |
| 2026-05-06 08:34 | 50.10906 | 3.10156 | 17129 ft | 389 kts | 178° |
| 2026-05-06 08:34 | 50.08226 | 3.09661 | 17745 ft | 391 kts | 199° |
| 2026-05-06 08:35 | 50.05815 | 3.07746 | 18336 ft | 391 kts | 219° |
| 2026-05-06 08:35 | 50.03982 | 3.04667 | 18876 ft | 390 kts | 239° |
| 2026-05-06 08:35 | 50.02932 | 3.00791 | 19333 ft | 391 kts | 259° |
| 2026-05-06 08:35 | 50.02755 | 2.96576 | 19770 ft | 394 kts | 277° |
| 2026-05-06 08:36 | 50.03139 | 2.92360 | 20338 ft | 395 kts | 280° |
| 2026-05-06 08:36 | 50.03588 | 2.88115 | 20791 ft | 400 kts | 280° |
| 2026-05-06 08:36 | 50.04055 | 2.83828 | 21259 ft | 404 kts | 280° |
| 2026-05-06 08:36 | 50.04518 | 2.79501 | 21741 ft | 408 kts | 280° |
| 2026-05-06 08:37 | 50.04973 | 2.75132 | 22210 ft | 411 kts | 279° |
| 2026-05-06 08:37 | 50.05422 | 2.70716 | 22677 ft | 415 kts | 279° |
| 2026-05-06 08:37 | 50.05866 | 2.66262 | 23141 ft | 418 kts | 279° |
| 2026-05-06 08:37 | 50.06308 | 2.61763 | 23526 ft | 423 kts | 279° |
| 2026-05-06 08:38 | 50.06752 | 2.57220 | 23898 ft | 426 kts | 279° |
| 2026-05-06 08:38 | 50.07194 | 2.52655 | 24336 ft | 427 kts | 279° |
| 2026-05-06 08:38 | 50.07637 | 2.48073 | 24759 ft | 429 kts | 279° |
| 2026-05-06 08:38 | 50.08079 | 2.43478 | 25131 ft | 431 kts | 278° |
| 2026-05-06 08:39 | 50.08523 | 2.38839 | 25457 ft | 435 kts | 278° |
| 2026-05-06 08:39 | 50.08969 | 2.34168 | 25838 ft | 437 kts | 278° |
| 2026-05-06 08:39 | 50.09414 | 2.29483 | 26245 ft | 438 kts | 278° |
| 2026-05-06 08:39 | 50.09860 | 2.24768 | 26535 ft | 442 kts | 278° |
| 2026-05-06 08:40 | 50.10308 | 2.20020 | 26872 ft | 445 kts | 278° |
| 2026-05-06 08:40 | 50.10755 | 2.15253 | 27308 ft | 444 kts | 278° |
| 2026-05-06 08:40 | 50.11201 | 2.10478 | 27632 ft | 447 kts | 278° |
| 2026-05-06 08:40 | 50.11648 | 2.05662 | 27870 ft | 451 kts | 278° |
| 2026-05-06 08:41 | 50.12097 | 2.00820 | 28221 ft | 453 kts | 278° |
| 2026-05-06 08:41 | 50.12545 | 1.95959 | 28581 ft | 454 kts | 278° |
| 2026-05-06 08:41 | 50.12941 | 1.91067 | 28828 ft | 457 kts | 273° |
| 2026-05-06 08:41 | 50.12831 | 1.86114 | 29108 ft | 459 kts | 262° |
| 2026-05-06 08:42 | 50.12163 | 1.81244 | 29432 ft | 460 kts | 252° |
| 2026-05-06 08:42 | 50.10970 | 1.76633 | 29793 ft | 459 kts | 244° |
| 2026-05-06 08:42 | 50.09601 | 1.72217 | 30164 ft | 458 kts | 243° |
| 2026-05-06 08:42 | 50.08189 | 1.67768 | 30506 ft | 457 kts | 243° |
| 2026-05-06 08:43 | 50.06767 | 1.63269 | 30871 ft | 457 kts | 243° |
| 2026-05-06 08:43 | 50.05400 | 1.58894 | 31206 ft | 455 kts | 244° |
| 2026-05-06 08:43 | 50.04028 | 1.54457 | 31572 ft | 454 kts | 244° |
| 2026-05-06 08:43 | 50.02670 | 1.50038 | 31914 ft | 453 kts | 244° |
| 2026-05-06 08:44 | 50.01297 | 1.45563 | 32255 ft | 452 kts | 244° |
| 2026-05-06 08:44 | 49.99963 | 1.41222 | 32586 ft | 451 kts | 245° |
| 2026-05-06 08:44 | 49.98612 | 1.36833 | 32905 ft | 450 kts | 245° |
| 2026-05-06 08:44 | 49.97259 | 1.32447 | 33220 ft | 449 kts | 245° |
| 2026-05-06 08:45 | 49.95908 | 1.28076 | 33527 ft | 449 kts | 245° |
| 2026-05-06 08:45 | 49.94556 | 1.23722 | 33842 ft | 448 kts | 244° |
| 2026-05-06 08:45 | 49.92865 | 1.19672 | 34056 ft | 449 kts | 229° |
| 2026-05-06 08:45 | 49.90553 | 1.16429 | 34282 ft | 449 kts | 214° |
| 2026-05-06 08:46 | 49.87810 | 1.14145 | 34505 ft | 449 kts | 201° |
| 2026-05-06 08:46 | 49.84880 | 1.12476 | 34747 ft | 448 kts | 199° |
| 2026-05-06 08:46 | 49.81940 | 1.10892 | 34973 ft | 447 kts | 199° |
| 2026-05-06 08:46 | 49.79003 | 1.09304 | 35179 ft | 447 kts | 200° |
| 2026-05-06 08:47 | 49.76073 | 1.07684 | 35390 ft | 447 kts | 200° |
| 2026-05-06 08:47 | 49.73160 | 1.06040 | 35625 ft | 446 kts | 200° |
| 2026-05-06 08:47 | 49.70248 | 1.04379 | 35843 ft | 445 kts | 200° |
| 2026-05-06 08:47 | 49.67449 | 1.02779 | 36049 ft | 444 kts | 200° |
| 2026-05-06 08:48 | 49.64553 | 1.01125 | 36271 ft | 443 kts | 200° |
| 2026-05-06 08:48 | 49.61659 | 0.99474 | 36472 ft | 443 kts | 201° |
| 2026-05-06 08:48 | 49.59140 | 0.98039 | 36649 ft | 442 kts | 201° |
| 2026-05-06 08:48 | 49.56257 | 0.96411 | 36838 ft | 441 kts | 198° |
| 2026-05-06 08:49 | 49.53248 | 0.95544 | 36883 ft | 441 kts | 180° |
| 2026-05-06 08:49 | 49.50211 | 0.96137 | 36931 ft | 442 kts | 164° |
| 2026-05-06 08:49 | 49.47298 | 0.97713 | 36931 ft | 446 kts | 160° |
| 2026-05-06 08:50 | 49.41445 | 1.01021 | 36920 ft | 451 kts | 161° |
| 2026-05-06 08:50 | 49.35505 | 1.04232 | 36914 ft | 453 kts | 161° |
| 2026-05-06 08:51 | 49.30572 | 1.06853 | 36904 ft | 449 kts | 161° |
| 2026-05-06 08:51 | 49.24725 | 1.09946 | 36906 ft | 442 kts | 161° |
| 2026-05-06 08:52 | 49.18921 | 1.13009 | 36929 ft | 440 kts | 161° |
| 2026-05-06 08:52 | 49.13140 | 1.16057 | 36941 ft | 439 kts | 161° |
| 2026-05-06 08:53 | 49.07357 | 1.19100 | 36941 ft | 440 kts | 161° |
| 2026-05-06 08:53 | 49.01568 | 1.22138 | 36942 ft | 441 kts | 161° |
| 2026-05-06 08:54 | 48.95760 | 1.25178 | 36942 ft | 443 kts | 161° |
| 2026-05-06 08:54 | 48.89922 | 1.28227 | 36938 ft | 444 kts | 161° |
| 2026-05-06 08:55 | 48.84061 | 1.31281 | 36933 ft | 446 kts | 161° |
| 2026-05-06 08:55 | 48.78178 | 1.34338 | 36926 ft | 448 kts | 161° |
| 2026-05-06 08:56 | 48.72273 | 1.37399 | 36915 ft | 449 kts | 161° |
| 2026-05-06 08:56 | 48.66362 | 1.40455 | 36913 ft | 449 kts | 161° |
| 2026-05-06 08:57 | 48.60439 | 1.43510 | 36913 ft | 450 kts | 161° |
| 2026-05-06 08:57 | 48.54516 | 1.46558 | 36911 ft | 449 kts | 161° |
| 2026-05-06 08:58 | 48.48605 | 1.49592 | 36912 ft | 449 kts | 161° |
| 2026-05-06 08:58 | 48.42701 | 1.52615 | 36904 ft | 447 kts | 161° |
| 2026-05-06 08:59 | 48.36810 | 1.55623 | 36905 ft | 446 kts | 161° |
| 2026-05-06 08:59 | 48.30936 | 1.58616 | 36905 ft | 445 kts | 162° |
| 2026-05-06 09:00 | 48.25074 | 1.61595 | 36895 ft | 444 kts | 162° |
| 2026-05-06 09:00 | 48.19225 | 1.64561 | 36892 ft | 443 kts | 162° |
| 2026-05-06 09:01 | 48.13381 | 1.67517 | 36888 ft | 443 kts | 162° |
| 2026-05-06 09:01 | 48.07541 | 1.70462 | 36885 ft | 443 kts | 162° |
| 2026-05-06 09:02 | 48.01697 | 1.73404 | 36886 ft | 444 kts | 162° |
| 2026-05-06 09:02 | 47.95839 | 1.76346 | 36891 ft | 444 kts | 162° |
| 2026-05-06 09:03 | 47.89975 | 1.79284 | 36887 ft | 445 kts | 162° |
| 2026-05-06 09:03 | 47.84103 | 1.82219 | 36907 ft | 446 kts | 162° |
| 2026-05-06 09:04 | 47.78198 | 1.85163 | 36891 ft | 448 kts | 162° |
| 2026-05-06 09:04 | 47.72286 | 1.88103 | 36881 ft | 449 kts | 162° |
| 2026-05-06 09:05 | 47.66365 | 1.91042 | 36880 ft | 448 kts | 162° |
| 2026-05-06 09:05 | 47.60453 | 1.93969 | 36880 ft | 447 kts | 162° |
| 2026-05-06 09:06 | 47.54559 | 1.96879 | 36883 ft | 447 kts | 162° |
| 2026-05-06 09:06 | 47.48663 | 1.99784 | 36873 ft | 446 kts | 162° |
| 2026-05-06 09:07 | 47.42787 | 2.02672 | 36878 ft | 445 kts | 162° |
| 2026-05-06 09:07 | 47.36920 | 2.05549 | 36879 ft | 444 kts | 162° |
| 2026-05-06 09:08 | 47.31069 | 2.08412 | 36876 ft | 443 kts | 162° |
| 2026-05-06 09:08 | 47.25227 | 2.11263 | 36875 ft | 442 kts | 162° |
| 2026-05-06 09:09 | 47.19392 | 2.14106 | 36875 ft | 442 kts | 162° |
| 2026-05-06 09:09 | 47.13552 | 2.16942 | 36878 ft | 442 kts | 163° |
| 2026-05-06 09:09 | 47.10562 | 2.17910 | 36859 ft | 440 kts | 176° |
| 2026-05-06 09:10 | 47.07554 | 2.17956 | 36881 ft | 438 kts | 186° |
| 2026-05-06 09:10 | 47.04522 | 2.17183 | 36868 ft | 437 kts | 198° |
| 2026-05-06 09:10 | 47.01639 | 2.15784 | 36889 ft | 437 kts | 199° |
| 2026-05-06 09:11 | 46.95939 | 2.12838 | 36881 ft | 438 kts | 200° |
| 2026-05-06 09:11 | 46.90187 | 2.09896 | 36882 ft | 439 kts | 199° |
| 2026-05-06 09:12 | 46.84399 | 2.07001 | 36884 ft | 440 kts | 199° |
| 2026-05-06 09:12 | 46.78597 | 2.04130 | 36885 ft | 441 kts | 199° |
| 2026-05-06 09:13 | 46.72782 | 2.01262 | 36887 ft | 441 kts | 199° |
| 2026-05-06 09:13 | 46.66962 | 1.98396 | 36889 ft | 442 kts | 199° |
| 2026-05-06 09:14 | 46.61129 | 1.95529 | 36887 ft | 442 kts | 199° |
| 2026-05-06 09:14 | 46.55318 | 1.92680 | 36877 ft | 439 kts | 199° |
| 2026-05-06 09:15 | 46.49566 | 1.89865 | 36880 ft | 435 kts | 199° |
| 2026-05-06 09:15 | 46.43837 | 1.87069 | 36885 ft | 433 kts | 199° |
| 2026-05-06 09:16 | 46.38139 | 1.84292 | 36878 ft | 431 kts | 199° |
| 2026-05-06 09:16 | 46.32455 | 1.81528 | 36890 ft | 431 kts | 200° |
| 2026-05-06 09:17 | 46.26817 | 1.78526 | 36881 ft | 434 kts | 208° |
| 2026-05-06 09:17 | 46.21857 | 1.73598 | 36898 ft | 435 kts | 221° |
| 2026-05-06 09:18 | 46.17277 | 1.67785 | 36892 ft | 441 kts | 221° |
| 2026-05-06 09:18 | 46.12645 | 1.61941 | 36889 ft | 444 kts | 221° |
| 2026-05-06 09:19 | 46.07959 | 1.56116 | 36883 ft | 445 kts | 221° |
| 2026-05-06 09:19 | 46.03270 | 1.50321 | 36892 ft | 444 kts | 221° |
| 2026-05-06 09:20 | 45.98603 | 1.44562 | 36888 ft | 439 kts | 221° |
| 2026-05-06 09:20 | 45.94424 | 1.38277 | 36904 ft | 433 kts | 235° |
| 2026-05-06 09:21 | 45.91520 | 1.30740 | 36921 ft | 433 kts | 244° |
| 2026-05-06 09:21 | 45.88832 | 1.22942 | 36925 ft | 438 kts | 243° |
| 2026-05-06 09:22 | 45.86062 | 1.15088 | 36920 ft | 443 kts | 243° |
| 2026-05-06 09:22 | 45.83236 | 1.07185 | 36911 ft | 447 kts | 242° |
| 2026-05-06 09:23 | 45.79547 | 1.00054 | 36899 ft | 445 kts | 224° |
| 2026-05-06 09:23 | 45.74870 | 0.94372 | 36892 ft | 438 kts | 220° |
| 2026-05-06 09:24 | 45.70197 | 0.88898 | 36892 ft | 436 kts | 220° |
| 2026-05-06 09:24 | 45.65502 | 0.83349 | 36889 ft | 434 kts | 220° |
| 2026-05-06 09:25 | 45.60856 | 0.77827 | 36893 ft | 434 kts | 220° |
| 2026-05-06 09:25 | 45.56239 | 0.72339 | 36892 ft | 435 kts | 220° |
| 2026-05-06 09:26 | 45.51572 | 0.66803 | 36895 ft | 437 kts | 220° |
| 2026-05-06 09:26 | 45.46883 | 0.61255 | 36902 ft | 440 kts | 220° |
| 2026-05-06 09:27 | 45.42163 | 0.55684 | 36907 ft | 442 kts | 220° |
| 2026-05-06 09:27 | 45.37415 | 0.50093 | 36895 ft | 444 kts | 220° |
| 2026-05-06 09:28 | 45.32645 | 0.44488 | 36901 ft | 445 kts | 220° |
| 2026-05-06 09:28 | 45.27869 | 0.38888 | 36896 ft | 445 kts | 220° |
| 2026-05-06 09:29 | 45.23088 | 0.33296 | 36898 ft | 445 kts | 220° |
| 2026-05-06 09:29 | 45.18312 | 0.27721 | 36890 ft | 444 kts | 220° |
| 2026-05-06 09:30 | 45.13543 | 0.22166 | 36894 ft | 443 kts | 220° |
| 2026-05-06 09:30 | 45.08794 | 0.16646 | 36898 ft | 441 kts | 220° |
| 2026-05-06 09:31 | 45.04061 | 0.11157 | 36899 ft | 439 kts | 220° |
| 2026-05-06 09:31 | 44.99340 | 0.05699 | 36898 ft | 438 kts | 220° |
| 2026-05-06 09:32 | 44.94635 | 0.00269 | 36906 ft | 436 kts | 220° |
| 2026-05-06 09:32 | 44.89941 | -0.05138 | 36906 ft | 435 kts | 220° |
| 2026-05-06 09:33 | 44.85261 | -0.10518 | 36908 ft | 434 kts | 220° |
| 2026-05-06 09:33 | 44.80579 | -0.15891 | 36909 ft | 434 kts | 220° |
| 2026-05-06 09:34 | 44.76690 | -0.20344 | 36912 ft | 434 kts | 220° |
| 2026-05-06 09:34 | 44.72001 | -0.25704 | 36917 ft | 434 kts | 220° |
| 2026-05-06 09:35 | 44.67302 | -0.31063 | 36920 ft | 435 kts | 220° |
| 2026-05-06 09:35 | 44.62314 | -0.35878 | 36926 ft | 438 kts | 210° |
| 2026-05-06 09:36 | 44.56903 | -0.39818 | 36937 ft | 439 kts | 209° |
| 2026-05-06 09:36 | 44.51459 | -0.43730 | 36924 ft | 440 kts | 209° |
| 2026-05-06 09:37 | 44.46024 | -0.47679 | 36927 ft | 440 kts | 210° |
| 2026-05-06 09:37 | 44.40594 | -0.51647 | 36937 ft | 440 kts | 210° |
| 2026-05-06 09:38 | 44.35164 | -0.55615 | 36941 ft | 440 kts | 210° |
| 2026-05-06 09:38 | 44.29723 | -0.59584 | 36935 ft | 441 kts | 210° |
| 2026-05-06 09:39 | 44.24283 | -0.63542 | 36941 ft | 441 kts | 210° |
| 2026-05-06 09:39 | 44.18841 | -0.67494 | 36949 ft | 440 kts | 210° |
| 2026-05-06 09:40 | 44.13413 | -0.71426 | 36952 ft | 439 kts | 210° |
| 2026-05-06 09:40 | 44.05329 | -0.77267 | 36955 ft | 438 kts | 210° |
| 2026-05-06 09:41 | 43.99930 | -0.81158 | 36960 ft | 437 kts | 210° |
| 2026-05-06 09:41 | 43.94544 | -0.85033 | 36962 ft | 436 kts | 210° |
| 2026-05-06 09:42 | 43.89162 | -0.88896 | 36983 ft | 435 kts | 210° |
| 2026-05-06 09:42 | 43.83777 | -0.92754 | 36991 ft | 436 kts | 210° |
| 2026-05-06 09:43 | 43.78377 | -0.96614 | 36987 ft | 437 kts | 210° |
| 2026-05-06 09:43 | 43.72980 | -1.00465 | 36994 ft | 437 kts | 210° |
| 2026-05-06 09:44 | 43.67583 | -1.04306 | 36990 ft | 436 kts | 210° |
| 2026-05-06 09:44 | 43.62514 | -1.07909 | 36989 ft | 436 kts | 210° |
| 2026-05-06 09:45 | 43.57118 | -1.11735 | 36995 ft | 436 kts | 210° |
| 2026-05-06 09:45 | 43.51720 | -1.15556 | 36993 ft | 436 kts | 210° |
| 2026-05-06 09:46 | 43.46320 | -1.19370 | 36986 ft | 436 kts | 210° |
| 2026-05-06 09:46 | 43.40916 | -1.23179 | 36997 ft | 436 kts | 210° |
| 2026-05-06 09:47 | 43.35510 | -1.26982 | 36992 ft | 436 kts | 210° |
| 2026-05-06 09:47 | 43.30113 | -1.30771 | 36993 ft | 436 kts | 210° |
| 2026-05-06 09:48 | 43.24706 | -1.34560 | 36997 ft | 436 kts | 210° |
| 2026-05-06 09:48 | 43.19294 | -1.38345 | 36992 ft | 436 kts | 210° |
| 2026-05-06 09:49 | 43.13899 | -1.42110 | 36999 ft | 434 kts | 210° |
| 2026-05-06 09:49 | 43.08550 | -1.45837 | 37003 ft | 434 kts | 210° |
| 2026-05-06 09:50 | 43.03175 | -1.49577 | 37017 ft | 433 kts | 210° |
| 2026-05-06 09:50 | 42.97806 | -1.53310 | 37023 ft | 433 kts | 210° |
| 2026-05-06 09:51 | 42.92439 | -1.57037 | 37019 ft | 433 kts | 210° |
| 2026-05-06 09:51 | 42.87075 | -1.60754 | 37021 ft | 433 kts | 210° |
| 2026-05-06 09:52 | 42.81705 | -1.64468 | 37017 ft | 432 kts | 210° |
| 2026-05-06 09:52 | 42.76346 | -1.68168 | 37015 ft | 431 kts | 210° |
| 2026-05-06 09:53 | 42.70990 | -1.71840 | 37025 ft | 431 kts | 210° |
| 2026-05-06 09:53 | 42.65617 | -1.75445 | 37013 ft | 430 kts | 210° |
| 2026-05-06 09:54 | 42.60254 | -1.79031 | 37016 ft | 429 kts | 210° |
| 2026-05-06 09:54 | 42.54905 | -1.82611 | 37009 ft | 428 kts | 210° |
| 2026-05-06 09:55 | 42.49568 | -1.86181 | 36999 ft | 427 kts | 210° |
| 2026-05-06 09:55 | 42.44248 | -1.89732 | 37008 ft | 426 kts | 210° |
| 2026-05-06 09:56 | 42.38936 | -1.93275 | 37008 ft | 425 kts | 210° |
| 2026-05-06 09:56 | 42.33633 | -1.96809 | 37007 ft | 425 kts | 210° |
| 2026-05-06 09:57 | 42.28334 | -2.00342 | 37007 ft | 424 kts | 210° |
| 2026-05-06 09:57 | 42.23037 | -2.03862 | 37013 ft | 424 kts | 210° |
| 2026-05-06 09:58 | 42.17736 | -2.07371 | 37003 ft | 424 kts | 210° |
| 2026-05-06 09:58 | 42.12429 | -2.10880 | 37008 ft | 425 kts | 210° |
| 2026-05-06 09:59 | 42.07118 | -2.14386 | 36997 ft | 425 kts | 210° |
| 2026-05-06 09:59 | 42.01801 | -2.17890 | 37004 ft | 425 kts | 210° |
| 2026-05-06 10:00 | 41.96483 | -2.21387 | 36995 ft | 426 kts | 210° |
| 2026-05-06 10:00 | 41.91157 | -2.24884 | 36999 ft | 426 kts | 210° |
| 2026-05-06 10:01 | 41.85831 | -2.28375 | 36998 ft | 426 kts | 210° |
| 2026-05-06 10:01 | 41.80512 | -2.31853 | 36995 ft | 424 kts | 210° |
| 2026-05-06 10:02 | 41.75219 | -2.35309 | 36998 ft | 422 kts | 210° |
| 2026-05-06 10:02 | 41.69947 | -2.38745 | 36997 ft | 421 kts | 210° |
| 2026-05-06 10:03 | 41.64689 | -2.42166 | 36996 ft | 420 kts | 210° |
| 2026-05-06 10:03 | 41.59440 | -2.45576 | 37009 ft | 419 kts | 210° |
| 2026-05-06 10:04 | 41.54189 | -2.48982 | 37009 ft | 420 kts | 210° |
| 2026-05-06 10:04 | 41.48922 | -2.52388 | 37002 ft | 421 kts | 210° |
| 2026-05-06 10:05 | 41.43642 | -2.55784 | 37008 ft | 422 kts | 210° |
| 2026-05-06 10:05 | 41.38351 | -2.59182 | 37000 ft | 423 kts | 210° |
| 2026-05-06 10:06 | 41.32829 | -2.61981 | 37007 ft | 431 kts | 197° |
| 2026-05-06 10:06 | 41.26841 | -2.62638 | 37002 ft | 442 kts | 182° |
| 2026-05-06 10:07 | 41.20701 | -2.62030 | 37000 ft | 443 kts | 181° |
| 2026-05-06 10:07 | 41.14552 | -2.61397 | 37004 ft | 443 kts | 181° |
| 2026-05-06 10:08 | 41.08410 | -2.60829 | 36998 ft | 442 kts | 181° |
| 2026-05-06 10:08 | 41.02272 | -2.60282 | 36996 ft | 442 kts | 182° |
| 2026-05-06 10:09 | 40.96141 | -2.59734 | 36998 ft | 441 kts | 182° |
| 2026-05-06 10:09 | 40.90020 | -2.59186 | 36995 ft | 440 kts | 182° |
| 2026-05-06 10:10 | 40.83913 | -2.58640 | 36998 ft | 439 kts | 182° |
| 2026-05-06 10:10 | 40.77818 | -2.58096 | 36991 ft | 439 kts | 182° |
| 2026-05-06 10:11 | 40.71729 | -2.57554 | 36992 ft | 438 kts | 182° |
| 2026-05-06 10:11 | 40.65655 | -2.57015 | 37001 ft | 437 kts | 182° |
| 2026-05-06 10:12 | 40.59589 | -2.56477 | 36997 ft | 437 kts | 182° |
| 2026-05-06 10:12 | 40.53528 | -2.55940 | 36996 ft | 436 kts | 182° |
| 2026-05-06 10:13 | 40.47480 | -2.55406 | 36988 ft | 435 kts | 182° |
| 2026-05-06 10:13 | 40.41439 | -2.54873 | 36991 ft | 435 kts | 182° |
| 2026-05-06 10:14 | 40.35542 | -2.55471 | 37001 ft | 420 kts | 199° |
| 2026-05-06 10:14 | 40.30101 | -2.57954 | 36985 ft | 413 kts | 207° |
| 2026-05-06 10:15 | 40.24749 | -2.60706 | 36977 ft | 413 kts | 207° |
| 2026-05-06 10:15 | 40.19384 | -2.63433 | 36983 ft | 414 kts | 206° |
| 2026-05-06 10:16 | 40.14004 | -2.66134 | 36989 ft | 414 kts | 206° |
| 2026-05-06 10:16 | 40.08624 | -2.68822 | 36988 ft | 414 kts | 206° |
| 2026-05-06 10:17 | 40.03231 | -2.71510 | 36985 ft | 415 kts | 206° |
| 2026-05-06 10:17 | 39.97841 | -2.74193 | 36988 ft | 415 kts | 206° |
| 2026-05-06 10:18 | 39.93358 | -2.76421 | 36975 ft | 415 kts | 206° |
| 2026-05-06 10:18 | 39.87970 | -2.79095 | 36978 ft | 414 kts | 206° |
| 2026-05-06 10:19 | 39.81719 | -2.82192 | 36981 ft | 413 kts | 206° |
| 2026-05-06 10:19 | 39.76357 | -2.84843 | 36981 ft | 412 kts | 206° |
| 2026-05-06 10:20 | 39.71866 | -2.87061 | 36975 ft | 412 kts | 206° |
| 2026-05-06 10:20 | 39.66516 | -2.89699 | 36972 ft | 411 kts | 207° |
| 2026-05-06 10:21 | 39.61176 | -2.92328 | 36977 ft | 410 kts | 207° |
| 2026-05-06 10:21 | 39.55883 | -2.94932 | 36971 ft | 409 kts | 207° |
| 2026-05-06 10:22 | 39.50559 | -2.97556 | 36969 ft | 409 kts | 207° |
| 2026-05-06 10:22 | 39.45249 | -3.00171 | 36972 ft | 408 kts | 207° |
| 2026-05-06 10:23 | 39.39942 | -3.02777 | 36969 ft | 408 kts | 207° |
| 2026-05-06 10:23 | 39.34633 | -3.05363 | 36968 ft | 407 kts | 206° |
| 2026-05-06 10:24 | 39.29331 | -3.07932 | 36970 ft | 407 kts | 207° |
| 2026-05-06 10:24 | 39.24029 | -3.10500 | 36974 ft | 407 kts | 207° |
| 2026-05-06 10:25 | 39.18729 | -3.13065 | 36966 ft | 407 kts | 207° |
| 2026-05-06 10:25 | 39.13428 | -3.15627 | 36968 ft | 407 kts | 207° |
| 2026-05-06 10:26 | 39.08132 | -3.18182 | 36966 ft | 406 kts | 207° |
| 2026-05-06 10:26 | 39.02836 | -3.20734 | 36968 ft | 406 kts | 207° |
| 2026-05-06 10:27 | 38.97538 | -3.23283 | 36966 ft | 406 kts | 207° |
| 2026-05-06 10:27 | 38.92247 | -3.25833 | 36963 ft | 406 kts | 207° |
| 2026-05-06 10:28 | 38.86956 | -3.28381 | 36958 ft | 406 kts | 207° |
| 2026-05-06 10:28 | 38.81667 | -3.30925 | 36958 ft | 406 kts | 207° |
| 2026-05-06 10:29 | 38.76382 | -3.33462 | 36955 ft | 405 kts | 207° |
| 2026-05-06 10:29 | 38.71100 | -3.35993 | 36956 ft | 405 kts | 207° |
| 2026-05-06 10:30 | 38.65824 | -3.38518 | 36949 ft | 405 kts | 207° |
| 2026-05-06 10:30 | 38.60555 | -3.41035 | 36949 ft | 404 kts | 207° |
| 2026-05-06 10:31 | 38.55291 | -3.43546 | 36952 ft | 404 kts | 207° |
| 2026-05-06 10:31 | 38.50028 | -3.46053 | 36953 ft | 404 kts | 207° |
| 2026-05-06 10:32 | 38.44803 | -3.48538 | 36962 ft | 403 kts | 207° |
| 2026-05-06 10:32 | 38.39543 | -3.51036 | 36939 ft | 403 kts | 207° |
| 2026-05-06 10:33 | 38.34288 | -3.53526 | 36942 ft | 403 kts | 207° |
| 2026-05-06 10:33 | 38.29034 | -3.56015 | 36951 ft | 403 kts | 207° |
| 2026-05-06 10:34 | 38.23767 | -3.58504 | 36947 ft | 404 kts | 207° |
| 2026-05-06 10:34 | 38.18493 | -3.60994 | 36949 ft | 405 kts | 207° |
| 2026-05-06 10:35 | 38.13254 | -3.63580 | 36952 ft | 403 kts | 210° |
| 2026-05-06 10:35 | 38.08141 | -3.66472 | 36953 ft | 402 kts | 211° |
| 2026-05-06 10:36 | 38.03042 | -3.69405 | 36944 ft | 403 kts | 210° |
| 2026-05-06 10:36 | 37.97931 | -3.72317 | 36945 ft | 403 kts | 210° |
| 2026-05-06 10:37 | 37.92808 | -3.75214 | 36945 ft | 403 kts | 210° |
| 2026-05-06 10:37 | 37.87692 | -3.78097 | 36939 ft | 403 kts | 210° |
| 2026-05-06 10:38 | 37.82578 | -3.80971 | 36945 ft | 402 kts | 210° |
| 2026-05-06 10:38 | 37.77474 | -3.83837 | 36941 ft | 401 kts | 210° |
| 2026-05-06 10:39 | 37.72382 | -3.86692 | 36942 ft | 401 kts | 210° |
| 2026-05-06 10:39 | 37.67316 | -3.89529 | 36944 ft | 400 kts | 210° |
| 2026-05-06 10:40 | 37.62223 | -3.92376 | 36952 ft | 401 kts | 210° |
| 2026-05-06 10:40 | 37.57130 | -3.95219 | 36958 ft | 400 kts | 210° |
| 2026-05-06 10:41 | 37.52042 | -3.98054 | 36937 ft | 400 kts | 210° |
| 2026-05-06 10:41 | 37.46958 | -4.00884 | 36944 ft | 400 kts | 210° |
| 2026-05-06 10:42 | 37.41869 | -4.03712 | 36941 ft | 400 kts | 210° |
| 2026-05-06 10:42 | 37.36778 | -4.06537 | 36945 ft | 400 kts | 210° |
| 2026-05-06 10:43 | 37.31686 | -4.09358 | 36946 ft | 400 kts | 210° |
| 2026-05-06 10:44 | 37.24053 | -4.13579 | 36946 ft | 399 kts | 210° |
| 2026-05-06 10:44 | 37.18967 | -4.16387 | 36949 ft | 400 kts | 210° |
| 2026-05-06 10:45 | 37.13869 | -4.19197 | 36939 ft | 401 kts | 210° |
| 2026-05-06 10:45 | 37.08755 | -4.22012 | 36929 ft | 402 kts | 209° |
| 2026-05-06 10:46 | 37.03628 | -4.24829 | 36929 ft | 403 kts | 209° |
| 2026-05-06 10:46 | 36.98493 | -4.27646 | 36923 ft | 403 kts | 209° |
| 2026-05-06 10:47 | 36.93485 | -4.30391 | 36918 ft | 402 kts | 209° |
| 2026-05-06 10:47 | 36.88366 | -4.33193 | 36920 ft | 402 kts | 209° |
| 2026-05-06 10:48 | 36.83242 | -4.35992 | 36910 ft | 402 kts | 209° |
| 2026-05-06 10:48 | 36.78391 | -4.39292 | 36933 ft | 394 kts | 217° |
| 2026-05-06 10:49 | 36.73770 | -4.43005 | 36906 ft | 396 kts | 217° |
| 2026-05-06 10:49 | 36.69142 | -4.46714 | 36914 ft | 396 kts | 217° |
| 2026-05-06 10:50 | 36.64501 | -4.50403 | 36910 ft | 396 kts | 217° |
| 2026-05-06 10:50 | 36.59813 | -4.54114 | 36913 ft | 397 kts | 217° |
| 2026-05-06 10:51 | 36.55151 | -4.57797 | 36911 ft | 398 kts | 217° |
| 2026-05-06 10:51 | 36.50472 | -4.61488 | 36922 ft | 399 kts | 217° |
| 2026-05-06 10:52 | 36.45811 | -4.65159 | 36920 ft | 400 kts | 217° |
| 2026-05-06 10:52 | 36.41107 | -4.68858 | 36931 ft | 401 kts | 217° |
| 2026-05-06 10:53 | 36.36391 | -4.72563 | 36938 ft | 402 kts | 217° |
| 2026-05-06 10:53 | 36.31661 | -4.76272 | 36939 ft | 402 kts | 217° |
| 2026-05-06 10:54 | 36.26928 | -4.79979 | 36938 ft | 403 kts | 217° |
| 2026-05-06 10:54 | 36.22183 | -4.83690 | 36939 ft | 403 kts | 217° |
| 2026-05-06 10:55 | 36.18080 | -4.86895 | 36939 ft | 404 kts | 217° |
| 2026-05-06 10:55 | 36.13329 | -4.90611 | 36947 ft | 404 kts | 217° |
| 2026-05-06 10:56 | 36.08604 | -4.94364 | 36941 ft | 404 kts | 217° |
| 2026-05-06 10:56 | 36.03881 | -4.98122 | 36942 ft | 404 kts | 217° |
| 2026-05-06 10:57 | 35.99150 | -5.01874 | 36940 ft | 404 kts | 217° |
| 2026-05-06 10:57 | 35.94417 | -5.05621 | 36942 ft | 404 kts | 217° |
| 2026-05-06 10:58 | 35.89682 | -5.09363 | 36931 ft | 404 kts | 217° |
| 2026-05-06 10:58 | 35.84941 | -5.13104 | 36941 ft | 405 kts | 217° |
| 2026-05-06 10:59 | 35.80334 | -5.17046 | 36948 ft | 402 kts | 221° |
| 2026-05-06 10:59 | 35.75862 | -5.21194 | 36941 ft | 403 kts | 221° |
| 2026-05-06 11:00 | 35.71389 | -5.25352 | 36940 ft | 403 kts | 221° |
| 2026-05-06 11:00 | 35.66901 | -5.29497 | 36943 ft | 404 kts | 221° |
| 2026-05-06 11:01 | 35.62398 | -5.33637 | 36906 ft | 405 kts | 221° |
| 2026-05-06 11:01 | 35.57890 | -5.37771 | 36945 ft | 405 kts | 221° |
| 2026-05-06 11:02 | 35.53371 | -5.41909 | 36952 ft | 405 kts | 221° |
| 2026-05-06 11:02 | 35.48843 | -5.46050 | 36941 ft | 406 kts | 220° |
| 2026-05-06 11:03 | 35.44308 | -5.50191 | 36949 ft | 406 kts | 221° |
| 2026-05-06 11:03 | 35.39771 | -5.54327 | 36936 ft | 406 kts | 220° |
| 2026-05-06 11:04 | 35.35239 | -5.58452 | 36959 ft | 406 kts | 220° |
| 2026-05-06 11:04 | 35.31473 | -5.61877 | 36953 ft | 406 kts | 221° |
| 2026-05-06 11:05 | 35.26942 | -5.65991 | 36960 ft | 405 kts | 220° |
| 2026-05-06 11:05 | 35.22416 | -5.70096 | 36967 ft | 405 kts | 221° |
| 2026-05-06 11:06 | 35.17891 | -5.74193 | 36973 ft | 405 kts | 221° |
| 2026-05-06 11:06 | 35.13364 | -5.78287 | 36971 ft | 404 kts | 220° |
| 2026-05-06 11:07 | 35.08841 | -5.82371 | 36957 ft | 404 kts | 220° |
| 2026-05-06 11:07 | 35.04325 | -5.86443 | 36969 ft | 403 kts | 221° |
| 2026-05-06 11:08 | 34.99810 | -5.90509 | 36969 ft | 403 kts | 220° |
| 2026-05-06 11:08 | 34.95295 | -5.94569 | 36966 ft | 403 kts | 220° |
| 2026-05-06 11:09 | 34.90784 | -5.98619 | 36967 ft | 403 kts | 220° |
| 2026-05-06 11:09 | 34.86268 | -6.02668 | 36968 ft | 403 kts | 220° |
| 2026-05-06 11:10 | 34.81754 | -6.06711 | 36968 ft | 403 kts | 220° |
| 2026-05-06 11:10 | 34.77229 | -6.10757 | 36963 ft | 403 kts | 220° |
| 2026-05-06 11:11 | 34.72708 | -6.14793 | 36966 ft | 403 kts | 220° |
| 2026-05-06 11:11 | 34.68212 | -6.18803 | 36967 ft | 403 kts | 220° |
| 2026-05-06 11:12 | 34.63687 | -6.22832 | 36963 ft | 403 kts | 220° |
| 2026-05-06 11:12 | 34.59162 | -6.26856 | 36962 ft | 403 kts | 220° |
| 2026-05-06 11:13 | 34.54638 | -6.30873 | 36963 ft | 403 kts | 221° |
| 2026-05-06 11:13 | 34.50112 | -6.34886 | 36963 ft | 403 kts | 220° |
| 2026-05-06 11:14 | 34.45591 | -6.38890 | 36962 ft | 402 kts | 221° |
| 2026-05-06 11:14 | 34.41071 | -6.42887 | 36962 ft | 402 kts | 221° |
| 2026-05-06 11:15 | 34.36556 | -6.46874 | 36960 ft | 402 kts | 221° |
| 2026-05-06 11:15 | 34.32040 | -6.50858 | 36960 ft | 401 kts | 220° |
| 2026-05-06 11:16 | 34.27529 | -6.54831 | 36960 ft | 401 kts | 220° |
| 2026-05-06 11:16 | 34.23020 | -6.58798 | 36962 ft | 401 kts | 220° |
| 2026-05-06 11:17 | 34.18509 | -6.62760 | 36964 ft | 401 kts | 220° |
| 2026-05-06 11:17 | 34.14003 | -6.66713 | 36966 ft | 400 kts | 220° |
| 2026-05-06 11:18 | 34.09501 | -6.70660 | 36969 ft | 400 kts | 220° |
| 2026-05-06 11:18 | 34.04993 | -6.74604 | 36964 ft | 400 kts | 220° |
| 2026-05-06 11:19 | 34.00416 | -6.78435 | 36974 ft | 401 kts | 219° |
| 2026-05-06 11:19 | 33.95803 | -6.82197 | 36964 ft | 400 kts | 219° |
| 2026-05-06 11:20 | 33.91195 | -6.85961 | 36963 ft | 400 kts | 219° |
| 2026-05-06 11:20 | 33.86594 | -6.89730 | 36971 ft | 400 kts | 219° |
| 2026-05-06 11:21 | 33.81995 | -6.93499 | 36970 ft | 400 kts | 219° |
| 2026-05-06 11:21 | 33.77398 | -6.97263 | 36980 ft | 400 kts | 219° |
| 2026-05-06 11:22 | 33.72807 | -7.01016 | 36985 ft | 399 kts | 219° |
| 2026-05-06 11:22 | 33.68247 | -7.04740 | 36985 ft | 398 kts | 219° |
| 2026-05-06 11:23 | 33.63668 | -7.08473 | 36991 ft | 398 kts | 219° |
| 2026-05-06 11:23 | 33.59093 | -7.12199 | 36994 ft | 397 kts | 219° |
| 2026-05-06 11:24 | 33.54523 | -7.15916 | 36994 ft | 396 kts | 219° |
| 2026-05-06 11:24 | 33.49962 | -7.19621 | 36987 ft | 396 kts | 219° |
| 2026-05-06 11:24 | 33.47685 | -7.21470 | 37152 ft | 395 kts | 219° |
| 2026-05-06 11:25 | 33.45407 | -7.23317 | 37085 ft | 396 kts | 218° |
| 2026-05-06 11:25 | 33.40843 | -7.27015 | 36990 ft | 396 kts | 218° |
| 2026-05-06 11:26 | 33.36302 | -7.30688 | 36983 ft | 393 kts | 218° |
| 2026-05-06 11:26 | 33.31793 | -7.34331 | 36987 ft | 389 kts | 218° |
| 2026-05-06 11:27 | 33.27324 | -7.37939 | 36988 ft | 386 kts | 218° |
| 2026-05-06 11:27 | 33.22879 | -7.41523 | 36989 ft | 384 kts | 218° |
| 2026-05-06 11:28 | 33.18457 | -7.45086 | 36997 ft | 383 kts | 218° |
| 2026-05-06 11:28 | 33.13963 | -7.48493 | 36981 ft | 387 kts | 210° |
| 2026-05-06 11:29 | 33.08745 | -7.50413 | 36986 ft | 399 kts | 197° |
| 2026-05-06 11:29 | 33.03102 | -7.50665 | 36992 ft | 410 kts | 187° |
| 2026-05-06 11:30 | 32.97401 | -7.50564 | 36981 ft | 409 kts | 188° |
| 2026-05-06 11:30 | 32.91692 | -7.50517 | 36589 ft | 414 kts | 188° |
| 2026-05-06 11:30 | 32.88868 | -7.50505 | 36259 ft | 408 kts | 188° |
| 2026-05-06 11:31 | 32.86039 | -7.50491 | 35843 ft | 404 kts | 188° |
| 2026-05-06 11:31 | 32.83251 | -7.50466 | 35468 ft | 399 kts | 188° |
| 2026-05-06 11:31 | 32.80483 | -7.50437 | 35059 ft | 395 kts | 189° |
| 2026-05-06 11:31 | 32.77748 | -7.50409 | 34667 ft | 391 kts | 189° |
| 2026-05-06 11:32 | 32.75038 | -7.50382 | 34271 ft | 387 kts | 189° |
| 2026-05-06 11:32 | 32.72357 | -7.50357 | 33862 ft | 384 kts | 189° |
| 2026-05-06 11:32 | 32.69699 | -7.50332 | 33411 ft | 380 kts | 189° |
| 2026-05-06 11:32 | 32.67071 | -7.50308 | 33015 ft | 376 kts | 189° |
| 2026-05-06 11:33 | 32.64475 | -7.50287 | 32715 ft | 369 kts | 190° |
| 2026-05-06 11:33 | 32.61933 | -7.50277 | 32392 ft | 364 kts | 190° |
| 2026-05-06 11:33 | 32.59418 | -7.50261 | 32054 ft | 360 kts | 190° |
| 2026-05-06 11:33 | 32.56922 | -7.50244 | 31663 ft | 357 kts | 189° |
| 2026-05-06 11:34 | 32.54448 | -7.50226 | 31293 ft | 355 kts | 189° |
| 2026-05-06 11:34 | 32.51988 | -7.50208 | 30927 ft | 352 kts | 189° |
| 2026-05-06 11:34 | 32.49543 | -7.50191 | 30557 ft | 351 kts | 189° |
| 2026-05-06 11:34 | 32.47111 | -7.50174 | 30196 ft | 349 kts | 189° |
| 2026-05-06 11:35 | 32.44689 | -7.50157 | 29795 ft | 347 kts | 189° |
| 2026-05-06 11:35 | 32.42284 | -7.50140 | 29383 ft | 345 kts | 189° |
| 2026-05-06 11:35 | 32.39893 | -7.50123 | 28993 ft | 342 kts | 189° |
| 2026-05-06 11:35 | 32.37525 | -7.50105 | 28620 ft | 339 kts | 189° |
| 2026-05-06 11:36 | 32.35177 | -7.50088 | 28243 ft | 336 kts | 189° |
| 2026-05-06 11:36 | 32.32850 | -7.50071 | 27875 ft | 333 kts | 189° |
| 2026-05-06 11:36 | 32.30533 | -7.50055 | 27507 ft | 332 kts | 189° |
| 2026-05-06 11:36 | 32.28226 | -7.50040 | 27145 ft | 331 kts | 189° |
| 2026-05-06 11:37 | 32.25919 | -7.50026 | 26791 ft | 334 kts | 189° |
| 2026-05-06 11:37 | 32.23557 | -7.50016 | 26434 ft | 346 kts | 188° |
| 2026-05-06 11:37 | 32.21131 | -7.50002 | 26044 ft | 349 kts | 188° |
| 2026-05-06 11:37 | 32.18702 | -7.49980 | 25649 ft | 348 kts | 188° |
| 2026-05-06 11:38 | 32.16290 | -7.49959 | 25265 ft | 346 kts | 187° |
| 2026-05-06 11:38 | 32.13892 | -7.49940 | 24890 ft | 344 kts | 187° |
| 2026-05-06 11:38 | 32.11503 | -7.49923 | 24519 ft | 342 kts | 188° |
| 2026-05-06 11:38 | 32.09207 | -7.50317 | 24132 ft | 328 kts | 205° |
| 2026-05-06 11:39 | 32.07178 | -7.51450 | 23710 ft | 321 kts | 218° |
| 2026-05-06 11:39 | 32.05489 | -7.53145 | 23100 ft | 320 kts | 230° |
| 2026-05-06 11:39 | 32.03985 | -7.55079 | 22640 ft | 319 kts | 231° |
| 2026-05-06 11:39 | 32.02514 | -7.57033 | 22246 ft | 317 kts | 231° |
| 2026-05-06 11:40 | 32.01057 | -7.58972 | 21854 ft | 315 kts | 231° |
| 2026-05-06 11:40 | 31.99599 | -7.60898 | 21455 ft | 314 kts | 231° |
| 2026-05-06 11:40 | 31.98161 | -7.62785 | 21053 ft | 314 kts | 231° |
| 2026-05-06 11:40 | 31.96701 | -7.64691 | 20662 ft | 313 kts | 230° |
| 2026-05-06 11:41 | 31.95225 | -7.66610 | 20290 ft | 311 kts | 230° |
| 2026-05-06 11:41 | 31.93771 | -7.68498 | 19899 ft | 311 kts | 230° |
| 2026-05-06 11:41 | 31.92336 | -7.70358 | 19544 ft | 310 kts | 230° |
| 2026-05-06 11:41 | 31.90888 | -7.72234 | 19193 ft | 309 kts | 230° |
| 2026-05-06 11:42 | 31.89441 | -7.74107 | 18838 ft | 308 kts | 230° |
| 2026-05-06 11:42 | 31.87998 | -7.75973 | 18488 ft | 308 kts | 230° |
| 2026-05-06 11:42 | 31.86560 | -7.77832 | 18126 ft | 307 kts | 230° |
| 2026-05-06 11:42 | 31.85131 | -7.79697 | 17731 ft | 305 kts | 234° |
| 2026-05-06 11:43 | 31.84413 | -7.81061 | 17428 ft | 303 kts | 248° |
| 2026-05-06 11:43 | 31.83809 | -7.83440 | 16863 ft | 307 kts | 263° |
| 2026-05-06 11:43 | 31.83716 | -7.85943 | 16494 ft | 306 kts | 268° |
| 2026-05-06 11:44 | 31.83728 | -7.90925 | 15781 ft | 303 kts | 269° |
| 2026-05-06 11:44 | 31.83741 | -7.93399 | 15431 ft | 302 kts | 269° |
| 2026-05-06 11:44 | 31.83749 | -7.95857 | 15093 ft | 300 kts | 269° |
| 2026-05-06 11:44 | 31.83752 | -7.98303 | 14764 ft | 298 kts | 269° |
| 2026-05-06 11:45 | 31.83751 | -8.00740 | 14434 ft | 297 kts | 269° |
| 2026-05-06 11:45 | 31.83748 | -8.03164 | 14115 ft | 296 kts | 269° |
| 2026-05-06 11:45 | 31.83743 | -8.05579 | 13781 ft | 295 kts | 269° |
| 2026-05-06 11:45 | 31.83736 | -8.07985 | 13415 ft | 294 kts | 269° |
| 2026-05-06 11:46 | 31.83729 | -8.10379 | 13063 ft | 292 kts | 269° |
| 2026-05-06 11:46 | 31.83720 | -8.12764 | 12727 ft | 291 kts | 269° |
| 2026-05-06 11:46 | 31.83712 | -8.15136 | 12393 ft | 289 kts | 269° |
| 2026-05-06 11:46 | 31.83703 | -8.17493 | 12067 ft | 287 kts | 269° |
| 2026-05-06 11:47 | 31.83693 | -8.19839 | 11734 ft | 286 kts | 269° |
| 2026-05-06 11:47 | 31.83683 | -8.22171 | 11414 ft | 285 kts | 269° |
| 2026-05-06 11:47 | 31.83673 | -8.24495 | 11086 ft | 284 kts | 269° |
| 2026-05-06 11:47 | 31.83662 | -8.26811 | 10765 ft | 283 kts | 269° |
| 2026-05-06 11:48 | 31.83651 | -8.29117 | 10450 ft | 282 kts | 269° |
| 2026-05-06 11:48 | 31.83639 | -8.31415 | 10208 ft | 278 kts | 269° |
| 2026-05-06 11:48 | 31.83628 | -8.33652 | 10089 ft | 270 kts | 269° |
| 2026-05-06 11:48 | 31.83616 | -8.35842 | 9896 ft | 266 kts | 269° |
| 2026-05-06 11:49 | 31.83297 | -8.37965 | 9562 ft | 266 kts | 246° |
| 2026-05-06 11:49 | 31.82246 | -8.39734 | 9291 ft | 266 kts | 225° |
| 2026-05-06 11:49 | 31.80707 | -8.40933 | 9004 ft | 267 kts | 207° |
| 2026-05-06 11:49 | 31.79014 | -8.41808 | 8729 ft | 265 kts | 205° |
| 2026-05-06 11:50 | 31.77320 | -8.42652 | 8450 ft | 264 kts | 205° |
| 2026-05-06 11:50 | 31.75631 | -8.43501 | 8158 ft | 264 kts | 206° |
| 2026-05-06 11:50 | 31.73951 | -8.44356 | 7878 ft | 263 kts | 206° |
| 2026-05-06 11:50 | 31.72843 | -8.44923 | 7704 ft | 262 kts | 206° |
| 2026-05-06 11:51 | 31.71173 | -8.45780 | 7412 ft | 262 kts | 206° |
| 2026-05-06 11:51 | 31.69507 | -8.46634 | 7125 ft | 261 kts | 204° |
| 2026-05-06 11:51 | 31.67130 | -8.46924 | 6728 ft | 267 kts | 169° |
| 2026-05-06 11:51 | 31.65461 | -8.45966 | 6460 ft | 272 kts | 141° |
| 2026-05-06 11:52 | 31.64355 | -8.44172 | 6162 ft | 276 kts | 112° |
| 2026-05-06 11:52 | 31.64033 | -8.42699 | 5977 ft | 276 kts | 99° |
| 2026-05-06 11:52 | 31.63810 | -8.40464 | 5713 ft | 275 kts | 96° |
| 2026-05-06 11:52 | 31.63644 | -8.38227 | 5425 ft | 275 kts | 95° |
| 2026-05-06 11:53 | 31.63482 | -8.36010 | 5276 ft | 269 kts | 95° |
| 2026-05-06 11:53 | 31.63316 | -8.33859 | 5167 ft | 260 kts | 96° |
| 2026-05-06 11:53 | 31.63148 | -8.31766 | 5054 ft | 255 kts | 95° |
| 2026-05-06 11:53 | 31.62984 | -8.29717 | 4967 ft | 249 kts | 96° |
| 2026-05-06 11:54 | 31.62812 | -8.27713 | 4838 ft | 245 kts | 96° |
| 2026-05-06 11:54 | 31.62643 | -8.25739 | 4625 ft | 248 kts | 96° |
| 2026-05-06 11:54 | 31.62475 | -8.23707 | 4319 ft | 251 kts | 96° |
| 2026-05-06 11:54 | 31.62295 | -8.21672 | 4105 ft | 252 kts | 96° |
| 2026-05-06 11:55 | 31.62105 | -8.19637 | 3904 ft | 250 kts | 96° |
| 2026-05-06 11:55 | 31.61921 | -8.17615 | 3589 ft | 249 kts | 96° |
| 2026-05-06 11:55 | 31.61747 | -8.15599 | 3253 ft | 248 kts | 94° |
| 2026-05-06 11:55 | 31.61586 | -8.13595 | 2933 ft | 247 kts | 96° |
| 2026-05-06 11:56 | 31.61380 | -8.11645 | 2610 ft | 234 kts | 94° |
| 2026-05-06 11:56 | 31.61233 | -8.09815 | 2321 ft | 217 kts | 95° |
| 2026-05-06 11:56 | 31.61083 | -8.08102 | 2030 ft | 205 kts | 94° |
| 2026-05-06 11:56 | 31.60941 | -8.06481 | 1766 ft | 195 kts | 94° |
| 2026-05-06 11:57 | 31.60804 | -8.04950 | 1659 ft | 182 kts | 94° |
| 2026-05-06 11:57 | 31.60666 | -8.03536 | 1542 ft | 161 kts | 95° |
| 2026-05-06 11:57 | 31.60596 | -8.02589 | 1548 ft | 63 kts | 96° |
| 2026-05-06 11:57 | 31.60567 | -8.02274 | 1549 ft | 27 kts | 96° |
| 2026-05-06 11:58 | 31.60478 | -8.02161 | 1542 ft | 20 kts | 182° |
| 2026-05-06 11:58 | 31.60392 | -8.02242 | 1548 ft | 18 kts | 279° |
| 2026-05-06 11:58 | 31.60385 | -8.02386 | 1547 ft | 17 kts | 217° |
| 2026-05-06 11:58 | 31.60290 | -8.02405 | 1545 ft | 0 kts | 186° |